sensor_id;sensor_type;location;lat;lon;timestamp;temperature;humidity
12907;DHT22;6521;50.498;8.474;2022-08-23T00:00:39;21.58;43.37
12907;DHT22;6521;50.498;8.474;2022-08-23T00:03:10;21.53;43.71
12907;DHT22;6521;50.498;8.474;2022-08-23T00:05:41;21.50;43.96
12907;DHT22;6521;50.498;8.474;2022-08-23T00:08:12;21.34;43.84
12907;DHT22;6521;50.498;8.474;2022-08-23T00:10:42;21.33;43.99
12907;DHT22;6521;50.498;8.474;2022-08-23T00:13:13;21.26;44.21
12907;DHT22;6521;50.498;8.474;2022-08-23T00:15:43;21.22;44.40
12907;DHT22;6521;50.498;8.474;2022-08-23T00:18:14;21.14;44.31
12907;DHT22;6521;50.498;8.474;2022-08-23T00:20:46;21.14;44.51
12907;DHT22;6521;50.498;8.474;2022-08-23T00:23:17;21.08;44.82
12907;DHT22;6521;50.498;8.474;2022-08-23T00:25:48;21.04;45.40
12907;DHT22;6521;50.498;8.474;2022-08-23T00:28:19;20.96;45.25
12907;DHT22;6521;50.498;8.474;2022-08-23T00:30:49;20.89;45.53
12907;DHT22;6521;50.498;8.474;2022-08-23T00:33:20;20.80;45.82
12907;DHT22;6521;50.498;8.474;2022-08-23T00:35:51;20.73;46.20
12907;DHT22;6521;50.498;8.474;2022-08-23T00:38:22;20.65;46.37
12907;DHT22;6521;50.498;8.474;2022-08-23T00:40:54;20.56;46.81
12907;DHT22;6521;50.498;8.474;2022-08-23T00:43:36;20.48;47.04
12907;DHT22;6521;50.498;8.474;2022-08-23T00:46:42;20.39;47.23
12907;DHT22;6521;50.498;8.474;2022-08-23T00:49:34;20.35;47.77
12907;DHT22;6521;50.498;8.474;2022-08-23T00:55:16;20.16;48.01
12907;DHT22;6521;50.498;8.474;2022-08-23T00:57:49;20.11;48.10
12907;DHT22;6521;50.498;8.474;2022-08-23T01:00:21;20.10;48.30
12907;DHT22;6521;50.498;8.474;2022-08-23T01:02:52;20.04;48.34
12907;DHT22;6521;50.498;8.474;2022-08-23T01:05:26;19.98;48.43
12907;DHT22;6521;50.498;8.474;2022-08-23T01:07:58;19.94;48.73
12907;DHT22;6521;50.498;8.474;2022-08-23T01:10:35;19.88;49.09
12907;DHT22;6521;50.498;8.474;2022-08-23T01:13:20;19.77;49.67
12907;DHT22;6521;50.498;8.474;2022-08-23T01:15:59;19.69;49.57
12907;DHT22;6521;50.498;8.474;2022-08-23T01:18:32;19.60;49.92
12907;DHT22;6521;50.498;8.474;2022-08-23T01:21:09;19.60;49.91
12907;DHT22;6521;50.498;8.474;2022-08-23T01:23:46;19.58;50.17
12907;DHT22;6521;50.498;8.474;2022-08-23T01:26:20;19.59;50.24
12907;DHT22;6521;50.498;8.474;2022-08-23T01:28:52;19.53;50.25
12907;DHT22;6521;50.498;8.474;2022-08-23T01:31:23;19.49;50.73
12907;DHT22;6521;50.498;8.474;2022-08-23T01:34:00;19.43;50.88
12907;DHT22;6521;50.498;8.474;2022-08-23T01:36:32;19.38;51.18
12907;DHT22;6521;50.498;8.474;2022-08-23T01:39:04;19.29;51.40
12907;DHT22;6521;50.498;8.474;2022-08-23T01:41:39;19.22;51.47
12907;DHT22;6521;50.498;8.474;2022-08-23T01:44:10;19.15;51.63
12907;DHT22;6521;50.498;8.474;2022-08-23T01:46:45;19.09;51.79
12907;DHT22;6521;50.498;8.474;2022-08-23T01:49:17;19.04;52.32
12907;DHT22;6521;50.498;8.474;2022-08-23T01:51:48;18.85;52.87
12907;DHT22;6521;50.498;8.474;2022-08-23T01:54:18;18.77;52.82
12907;DHT22;6521;50.498;8.474;2022-08-23T01:56:50;18.71;53.24
12907;DHT22;6521;50.498;8.474;2022-08-23T01:59:21;18.59;53.69
12907;DHT22;6521;50.498;8.474;2022-08-23T02:01:57;18.53;53.71
12907;DHT22;6521;50.498;8.474;2022-08-23T02:04:27;18.54;53.71
12907;DHT22;6521;50.498;8.474;2022-08-23T02:06:58;18.56;53.68
12907;DHT22;6521;50.498;8.474;2022-08-23T02:09:29;18.56;53.72
12907;DHT22;6521;50.498;8.474;2022-08-23T02:12:03;18.53;54.03
12907;DHT22;6521;50.498;8.474;2022-08-23T02:14:35;18.54;53.81
12907;DHT22;6521;50.498;8.474;2022-08-23T02:17:08;18.53;53.81
12907;DHT22;6521;50.498;8.474;2022-08-23T02:19:39;18.49;53.80
12907;DHT22;6521;50.498;8.474;2022-08-23T02:22:11;18.43;54.33
12907;DHT22;6521;50.498;8.474;2022-08-23T02:24:44;18.43;54.21
12907;DHT22;6521;50.498;8.474;2022-08-23T02:27:16;18.37;54.21
12907;DHT22;6521;50.498;8.474;2022-08-23T02:29:48;18.37;54.43
12907;DHT22;6521;50.498;8.474;2022-08-23T02:32:20;18.36;54.43
12907;DHT22;6521;50.498;8.474;2022-08-23T02:34:51;18.33;54.47
12907;DHT22;6521;50.498;8.474;2022-08-23T02:37:23;18.28;54.56
12907;DHT22;6521;50.498;8.474;2022-08-23T02:39:54;18.22;54.96
12907;DHT22;6521;50.498;8.474;2022-08-23T02:42:25;18.20;55.25
12907;DHT22;6521;50.498;8.474;2022-08-23T02:44:56;18.17;55.39
12907;DHT22;6521;50.498;8.474;2022-08-23T02:47:26;18.13;55.56
12907;DHT22;6521;50.498;8.474;2022-08-23T02:50:10;18.08;55.77
12907;DHT22;6521;50.498;8.474;2022-08-23T02:52:41;18.05;55.86
12907;DHT22;6521;50.498;8.474;2022-08-23T02:55:12;18.02;55.89
12907;DHT22;6521;50.498;8.474;2022-08-23T02:57:43;17.99;55.88
12907;DHT22;6521;50.498;8.474;2022-08-23T03:00:17;18.02;55.76
12907;DHT22;6521;50.498;8.474;2022-08-23T03:02:48;18.03;55.85
12907;DHT22;6521;50.498;8.474;2022-08-23T03:05:19;18.03;55.85
12907;DHT22;6521;50.498;8.474;2022-08-23T03:07:49;18.02;55.88
12907;DHT22;6521;50.498;8.474;2022-08-23T03:10:21;18.06;55.85
12907;DHT22;6521;50.498;8.474;2022-08-23T03:12:57;18.03;55.84
12907;DHT22;6521;50.498;8.474;2022-08-23T03:15:28;18.01;56.02
12907;DHT22;6521;50.498;8.474;2022-08-23T03:17:59;17.96;56.16
12907;DHT22;6521;50.498;8.474;2022-08-23T03:20:31;17.96;56.09
12907;DHT22;6521;50.498;8.474;2022-08-23T03:23:03;17.95;56.24
12907;DHT22;6521;50.498;8.474;2022-08-23T03:25:35;17.92;56.28
12907;DHT22;6521;50.498;8.474;2022-08-23T03:28:22;17.91;56.43
12907;DHT22;6521;50.498;8.474;2022-08-23T03:30:53;17.86;56.63
12907;DHT22;6521;50.498;8.474;2022-08-23T03:33:24;17.82;57.04
12907;DHT22;6521;50.498;8.474;2022-08-23T03:35:59;17.75;57.28
12907;DHT22;6521;50.498;8.474;2022-08-23T03:38:31;17.70;57.67
12907;DHT22;6521;50.498;8.474;2022-08-23T03:41:03;17.65;57.94
12907;DHT22;6521;50.498;8.474;2022-08-23T03:43:34;17.61;58.15
12907;DHT22;6521;50.498;8.474;2022-08-23T03:46:05;17.58;58.25
12907;DHT22;6521;50.498;8.474;2022-08-23T03:48:38;17.55;58.27
12907;DHT22;6521;50.498;8.474;2022-08-23T03:51:10;17.54;58.18
12907;DHT22;6521;50.498;8.474;2022-08-23T03:53:42;17.54;58.28
12907;DHT22;6521;50.498;8.474;2022-08-23T03:56:34;17.54;58.32
12907;DHT22;6521;50.498;8.474;2022-08-23T03:59:09;17.54;58.49
12907;DHT22;6521;50.498;8.474;2022-08-23T04:01:42;17.53;58.38
12907;DHT22;6521;50.498;8.474;2022-08-23T04:04:14;17.50;58.51
12907;DHT22;6521;50.498;8.474;2022-08-23T04:06:57;17.48;58.59
12907;DHT22;6521;50.498;8.474;2022-08-23T04:09:28;17.45;58.72
12907;DHT22;6521;50.498;8.474;2022-08-23T04:11:59;17.40;58.96
12907;DHT22;6521;50.498;8.474;2022-08-23T04:14:30;17.38;59.07
12907;DHT22;6521;50.498;8.474;2022-08-23T04:17:01;17.37;59.05
12907;DHT22;6521;50.498;8.474;2022-08-23T04:19:32;17.37;59.30
12907;DHT22;6521;50.498;8.474;2022-08-23T04:22:15;17.33;59.31
12907;DHT22;6521;50.498;8.474;2022-08-23T04:24:48;17.33;59.45
12907;DHT22;6521;50.498;8.474;2022-08-23T04:27:19;17.27;59.61
12907;DHT22;6521;50.498;8.474;2022-08-23T04:29:51;17.24;59.85
12907;DHT22;6521;50.498;8.474;2022-08-23T04:32:22;17.19;60.38
12907;DHT22;6521;50.498;8.474;2022-08-23T04:34:53;17.20;60.53
12907;DHT22;6521;50.498;8.474;2022-08-23T04:37:25;17.17;60.75
12907;DHT22;6521;50.498;8.474;2022-08-23T04:39:56;17.14;60.95
12907;DHT22;6521;50.498;8.474;2022-08-23T04:42:46;17.17;61.30
12907;DHT22;6521;50.498;8.474;2022-08-23T04:45:18;17.20;61.32
12907;DHT22;6521;50.498;8.474;2022-08-23T04:47:53;17.20;61.31
12907;DHT22;6521;50.498;8.474;2022-08-23T04:50:24;17.19;61.56
12907;DHT22;6521;50.498;8.474;2022-08-23T04:53:28;17.17;61.82
12907;DHT22;6521;50.498;8.474;2022-08-23T04:56:21;17.16;62.00
12907;DHT22;6521;50.498;8.474;2022-08-23T04:58:54;17.23;61.83
12907;DHT22;6521;50.498;8.474;2022-08-23T05:01:25;17.24;61.84
12907;DHT22;6521;50.498;8.474;2022-08-23T05:03:58;17.24;61.94
12907;DHT22;6521;50.498;8.474;2022-08-23T05:06:30;17.27;61.86
12907;DHT22;6521;50.498;8.474;2022-08-23T05:09:02;17.30;61.72
12907;DHT22;6521;50.498;8.474;2022-08-23T05:11:34;17.33;61.89
12907;DHT22;6521;50.498;8.474;2022-08-23T05:14:05;17.33;61.97
12907;DHT22;6521;50.498;8.474;2022-08-23T05:16:36;17.35;61.97
12907;DHT22;6521;50.498;8.474;2022-08-23T05:19:12;17.41;61.91
12907;DHT22;6521;50.498;8.474;2022-08-23T05:21:47;17.43;62.07
12907;DHT22;6521;50.498;8.474;2022-08-23T05:24:19;17.45;62.07
12907;DHT22;6521;50.498;8.474;2022-08-23T05:26:51;17.48;62.33
12907;DHT22;6521;50.498;8.474;2022-08-23T05:29:22;17.51;62.50
12907;DHT22;6521;50.498;8.474;2022-08-23T05:31:54;17.57;62.60
12907;DHT22;6521;50.498;8.474;2022-08-23T05:34:28;17.60;62.57
12907;DHT22;6521;50.498;8.474;2022-08-23T05:37:01;17.67;62.74
12907;DHT22;6521;50.498;8.474;2022-08-23T05:39:37;17.71;62.19
12907;DHT22;6521;50.498;8.474;2022-08-23T05:42:12;17.78;61.98
12907;DHT22;6521;50.498;8.474;2022-08-23T05:44:43;17.84;61.77
12907;DHT22;6521;50.498;8.474;2022-08-23T05:47:16;17.88;61.79
12907;DHT22;6521;50.498;8.474;2022-08-23T05:50:00;17.95;61.60
12907;DHT22;6521;50.498;8.474;2022-08-23T05:52:35;17.99;61.14
12907;DHT22;6521;50.498;8.474;2022-08-23T05:55:06;18.05;61.31
12907;DHT22;6521;50.498;8.474;2022-08-23T05:57:43;18.12;61.30
12907;DHT22;6521;50.498;8.474;2022-08-23T06:00:14;18.17;60.85
12907;DHT22;6521;50.498;8.474;2022-08-23T06:02:53;18.23;60.90
12907;DHT22;6521;50.498;8.474;2022-08-23T06:05:24;18.28;60.90
12907;DHT22;6521;50.498;8.474;2022-08-23T06:07:58;18.36;60.54
12907;DHT22;6521;50.498;8.474;2022-08-23T06:10:29;18.40;60.24
12907;DHT22;6521;50.498;8.474;2022-08-23T06:13:05;18.44;60.25
12907;DHT22;6521;50.498;8.474;2022-08-23T06:15:41;18.51;59.92
12907;DHT22;6521;50.498;8.474;2022-08-23T06:18:13;18.56;60.08
12907;DHT22;6521;50.498;8.474;2022-08-23T06:20:45;18.60;59.59
12907;DHT22;6521;50.498;8.474;2022-08-23T06:23:23;18.70;59.96
12907;DHT22;6521;50.498;8.474;2022-08-23T06:25:55;18.77;59.49
12907;DHT22;6521;50.498;8.474;2022-08-23T06:28:29;18.84;59.41
12907;DHT22;6521;50.498;8.474;2022-08-23T06:31:00;18.91;58.54
12907;DHT22;6521;50.498;8.474;2022-08-23T06:33:36;18.95;58.27
12907;DHT22;6521;50.498;8.474;2022-08-23T06:36:27;19.02;58.07
12907;DHT22;6521;50.498;8.474;2022-08-23T06:39:20;19.08;58.27
12907;DHT22;6521;50.498;8.474;2022-08-23T06:42:13;19.16;58.11
12907;DHT22;6521;50.498;8.474;2022-08-23T06:44:48;19.23;57.26
12907;DHT22;6521;50.498;8.474;2022-08-23T06:47:32;19.29;57.50
12907;DHT22;6521;50.498;8.474;2022-08-23T06:50:03;19.35;57.35
12907;DHT22;6521;50.498;8.474;2022-08-23T06:53:12;19.43;56.58
12907;DHT22;6521;50.498;8.474;2022-08-23T06:55:48;19.50;56.81
12907;DHT22;6521;50.498;8.474;2022-08-23T06:58:31;19.55;56.73
12907;DHT22;6521;50.498;8.474;2022-08-23T07:04:10;19.73;56.20
12907;DHT22;6521;50.498;8.474;2022-08-23T07:06:59;19.80;55.72
12907;DHT22;6521;50.498;8.474;2022-08-23T07:09:32;19.86;55.39
12907;DHT22;6521;50.498;8.474;2022-08-23T07:12:03;19.94;55.36
12907;DHT22;6521;50.498;8.474;2022-08-23T07:14:36;20.03;55.13
12907;DHT22;6521;50.498;8.474;2022-08-23T07:17:07;20.07;54.40
12907;DHT22;6521;50.498;8.474;2022-08-23T07:19:39;20.13;54.44
12907;DHT22;6521;50.498;8.474;2022-08-23T07:22:13;20.18;54.20
12907;DHT22;6521;50.498;8.474;2022-08-23T07:24:45;20.29;54.34
12907;DHT22;6521;50.498;8.474;2022-08-23T07:27:16;20.35;53.75
12907;DHT22;6521;50.498;8.474;2022-08-23T07:30:04;20.44;54.00
12907;DHT22;6521;50.498;8.474;2022-08-23T07:32:36;20.53;54.01
12907;DHT22;6521;50.498;8.474;2022-08-23T07:35:17;20.62;53.48
12907;DHT22;6521;50.498;8.474;2022-08-23T07:37:49;20.69;53.25
12907;DHT22;6521;50.498;8.474;2022-08-23T07:40:20;20.79;52.87
12907;DHT22;6521;50.498;8.474;2022-08-23T07:42:56;20.89;52.60
12907;DHT22;6521;50.498;8.474;2022-08-23T07:45:26;21.03;53.27
12907;DHT22;6521;50.498;8.474;2022-08-23T07:48:01;21.08;52.45
12907;DHT22;6521;50.498;8.474;2022-08-23T07:50:35;21.17;52.46
12907;DHT22;6521;50.498;8.474;2022-08-23T07:53:07;21.24;52.64
12907;DHT22;6521;50.498;8.474;2022-08-23T07:55:38;21.38;52.13
12907;DHT22;6521;50.498;8.474;2022-08-23T07:58:24;21.50;51.36
12907;DHT22;6521;50.498;8.474;2022-08-23T08:01:19;21.61;51.76
12907;DHT22;6521;50.498;8.474;2022-08-23T08:03:55;21.78;51.73
12907;DHT22;6521;50.498;8.474;2022-08-23T08:06:41;21.95;50.60
12907;DHT22;6521;50.498;8.474;2022-08-23T08:09:14;22.06;49.86
12907;DHT22;6521;50.498;8.474;2022-08-23T08:11:46;22.12;50.47
12907;DHT22;6521;50.498;8.474;2022-08-23T08:14:20;22.26;49.73
12907;DHT22;6521;50.498;8.474;2022-08-23T08:16:58;22.32;49.12
12907;DHT22;6521;50.498;8.474;2022-08-23T08:19:48;22.49;48.82
12907;DHT22;6521;50.498;8.474;2022-08-23T08:22:41;22.67;48.74
12907;DHT22;6521;50.498;8.474;2022-08-23T08:25:15;22.87;47.14
12907;DHT22;6521;50.498;8.474;2022-08-23T08:27:46;22.92;46.58
12907;DHT22;6521;50.498;8.474;2022-08-23T08:30:17;23.05;47.17
12907;DHT22;6521;50.498;8.474;2022-08-23T08:32:49;23.21;46.99
12907;DHT22;6521;50.498;8.474;2022-08-23T08:35:19;23.37;46.63
12907;DHT22;6521;50.498;8.474;2022-08-23T08:37:50;23.62;46.34
12907;DHT22;6521;50.498;8.474;2022-08-23T08:40:28;23.79;45.45
12907;DHT22;6521;50.498;8.474;2022-08-23T08:43:25;23.97;44.72
12907;DHT22;6521;50.498;8.474;2022-08-23T08:46:18;24.16;44.71
12907;DHT22;6521;50.498;8.474;2022-08-23T08:48:55;24.34;43.66
12907;DHT22;6521;50.498;8.474;2022-08-23T08:51:50;24.65;43.77
12907;DHT22;6521;50.498;8.474;2022-08-23T08:54:25;24.69;43.17
12907;DHT22;6521;50.498;8.474;2022-08-23T08:56:59;24.80;43.22
12907;DHT22;6521;50.498;8.474;2022-08-23T08:59:55;25.15;42.47
12907;DHT22;6521;50.498;8.474;2022-08-23T09:02:31;25.31;41.34
12907;DHT22;6521;50.498;8.474;2022-08-23T09:05:09;25.37;41.44
12907;DHT22;6521;50.498;8.474;2022-08-23T09:08:11;25.68;41.43
12907;DHT22;6521;50.498;8.474;2022-08-23T09:11:06;25.86;40.24
12907;DHT22;6521;50.498;8.474;2022-08-23T09:19:11;26.88;39.06
12907;DHT22;6521;50.498;8.474;2022-08-23T09:24:20;27.34;36.61
12907;DHT22;6521;50.498;8.474;2022-08-23T09:27:04;27.76;36.93
12907;DHT22;6521;50.498;8.474;2022-08-23T09:29:38;27.94;36.30
12907;DHT22;6521;50.498;8.474;2022-08-23T09:35:27;28.95;34.50
12907;DHT22;6521;50.498;8.474;2022-08-23T09:38:19;29.57;33.54
12907;DHT22;6521;50.498;8.474;2022-08-23T09:40:53;30.11;32.76
12907;DHT22;6521;50.498;8.474;2022-08-23T09:43:26;30.16;32.11
12907;DHT22;6521;50.498;8.474;2022-08-23T09:46:00;30.29;32.73
12907;DHT22;6521;50.498;8.474;2022-08-23T09:48:41;30.84;31.73
12907;DHT22;6521;50.498;8.474;2022-08-23T09:51:33;30.95;31.63
12907;DHT22;6521;50.498;8.474;2022-08-23T09:54:32;31.41;30.41
12907;DHT22;6521;50.498;8.474;2022-08-23T09:57:07;31.70;30.18
12907;DHT22;6521;50.498;8.474;2022-08-23T09:59:42;31.99;29.46
12907;DHT22;6521;50.498;8.474;2022-08-23T10:02:33;32.05;28.88
12907;DHT22;6521;50.498;8.474;2022-08-23T10:05:36;32.17;29.39
12907;DHT22;6521;50.498;8.474;2022-08-23T10:08:07;32.31;29.26
12907;DHT22;6521;50.498;8.474;2022-08-23T10:10:47;32.81;28.36
12907;DHT22;6521;50.498;8.474;2022-08-23T10:13:21;32.88;28.63
12907;DHT22;6521;50.498;8.474;2022-08-23T10:18:53;32.82;27.54
12907;DHT22;6521;50.498;8.474;2022-08-23T10:21:31;32.95;27.83
12907;DHT22;6521;50.498;8.474;2022-08-23T10:27:18;32.58;27.62
12907;DHT22;6521;50.498;8.474;2022-08-23T10:30:22;33.05;27.67
12907;DHT22;6521;50.498;8.474;2022-08-23T10:39:02;34.12;26.60
12907;DHT22;6521;50.498;8.474;2022-08-23T10:47:20;34.66;25.44
12907;DHT22;6521;50.498;8.474;2022-08-23T10:49:59;34.68;25.79
12907;DHT22;6521;50.498;8.474;2022-08-23T10:52:44;34.45;25.58
12907;DHT22;6521;50.498;8.474;2022-08-23T10:55:23;34.39;26.08
12907;DHT22;6521;50.498;8.474;2022-08-23T10:58:12;34.10;26.02
12907;DHT22;6521;50.498;8.474;2022-08-23T11:00:46;34.18;26.19
12907;DHT22;6521;50.498;8.474;2022-08-23T11:03:26;34.62;26.06
12907;DHT22;6521;50.498;8.474;2022-08-23T11:14:38;34.79;25.13
12907;DHT22;6521;50.498;8.474;2022-08-23T11:17:21;34.90;24.67
12907;DHT22;6521;50.498;8.474;2022-08-23T11:19:59;34.89;24.91
12907;DHT22;6521;50.498;8.474;2022-08-23T11:33:48;34.27;25.62
12907;DHT22;6521;50.498;8.474;2022-08-23T11:36:24;33.64;26.22
12907;DHT22;6521;50.498;8.474;2022-08-23T11:41:32;33.19;27.03
12907;DHT22;6521;50.498;8.474;2022-08-23T11:46:54;32.54;27.63
12907;DHT22;6521;50.498;8.474;2022-08-23T11:55:06;31.24;29.73
12907;DHT22;6521;50.498;8.474;2022-08-23T12:03:57;32.24;28.20
12907;DHT22;6521;50.498;8.474;2022-08-23T12:06:53;31.55;28.97
12907;DHT22;6521;50.498;8.474;2022-08-23T12:23:17;34.04;25.51
12907;DHT22;6521;50.498;8.474;2022-08-23T12:26:07;34.60;25.24
12907;DHT22;6521;50.498;8.474;2022-08-23T12:28:45;34.34;24.91
12907;DHT22;6521;50.498;8.474;2022-08-23T12:31:23;33.53;25.63
12907;DHT22;6521;50.498;8.474;2022-08-23T12:34:14;32.79;27.05
12907;DHT22;6521;50.498;8.474;2022-08-23T12:36:55;32.33;27.48
12907;DHT22;6521;50.498;8.474;2022-08-23T12:39:33;32.26;28.14
12907;DHT22;6521;50.498;8.474;2022-08-23T12:42:14;32.34;27.47
12907;DHT22;6521;50.498;8.474;2022-08-23T12:44:58;32.70;27.69
12907;DHT22;6521;50.498;8.474;2022-08-23T12:47:30;32.75;26.70
12907;DHT22;6521;50.498;8.474;2022-08-23T12:52:40;32.36;27.73
12907;DHT22;6521;50.498;8.474;2022-08-23T12:55:17;32.07;28.02
12907;DHT22;6521;50.498;8.474;2022-08-23T12:57:53;32.36;27.89
12907;DHT22;6521;50.498;8.474;2022-08-23T13:00:34;32.36;27.31
12907;DHT22;6521;50.498;8.474;2022-08-23T13:03:19;31.78;27.51
12907;DHT22;6521;50.498;8.474;2022-08-23T13:06:00;31.83;28.43
12907;DHT22;6521;50.498;8.474;2022-08-23T13:08:36;32.51;27.79
12907;DHT22;6521;50.498;8.474;2022-08-23T13:11:10;33.06;26.97
12907;DHT22;6521;50.498;8.474;2022-08-23T13:13:43;33.50;26.36
12907;DHT22;6521;50.498;8.474;2022-08-23T13:16:31;33.41;25.95
12907;DHT22;6521;50.498;8.474;2022-08-23T13:24:43;32.89;25.74
12907;DHT22;6521;50.498;8.474;2022-08-23T13:27:19;32.79;25.86
12907;DHT22;6521;50.498;8.474;2022-08-23T13:29:56;32.55;26.30
12907;DHT22;6521;50.498;8.474;2022-08-23T13:32:43;32.20;26.17
12907;DHT22;6521;50.498;8.474;2022-08-23T13:35:37;31.61;27.74
12907;DHT22;6521;50.498;8.474;2022-08-23T13:45:55;31.59;27.34
12907;DHT22;6521;50.498;8.474;2022-08-23T13:48:32;31.96;27.10
12907;DHT22;6521;50.498;8.474;2022-08-23T13:51:30;31.20;27.18
12907;DHT22;6521;50.498;8.474;2022-08-23T13:54:08;31.04;28.33
12907;DHT22;6521;50.498;8.474;2022-08-23T13:56:51;31.45;27.90
12907;DHT22;6521;50.498;8.474;2022-08-23T14:02:02;32.43;26.15
12907;DHT22;6521;50.498;8.474;2022-08-23T14:04:34;32.58;25.85
12907;DHT22;6521;50.498;8.474;2022-08-23T14:07:05;32.84;25.14
12907;DHT22;6521;50.498;8.474;2022-08-23T14:09:37;33.36;25.49
12907;DHT22;6521;50.498;8.474;2022-08-23T14:12:14;33.42;25.25
12907;DHT22;6521;50.498;8.474;2022-08-23T14:14:45;33.49;24.56
12907;DHT22;6521;50.498;8.474;2022-08-23T14:17:16;33.41;24.90
12907;DHT22;6521;50.498;8.474;2022-08-23T14:19:47;33.18;25.63
12907;DHT22;6521;50.498;8.474;2022-08-23T14:22:18;33.01;25.77
12907;DHT22;6521;50.498;8.474;2022-08-23T14:24:50;32.91;25.72
12907;DHT22;6521;50.498;8.474;2022-08-23T14:27:21;33.12;25.70
12907;DHT22;6521;50.498;8.474;2022-08-23T14:29:52;33.62;25.01
12907;DHT22;6521;50.498;8.474;2022-08-23T14:32:23;33.83;24.74
12907;DHT22;6521;50.498;8.474;2022-08-23T14:34:54;33.81;24.34
12907;DHT22;6521;50.498;8.474;2022-08-23T14:37:25;33.83;24.40
12907;DHT22;6521;50.498;8.474;2022-08-23T14:39:56;33.56;24.50
12907;DHT22;6521;50.498;8.474;2022-08-23T14:42:28;33.08;25.19
12907;DHT22;6521;50.498;8.474;2022-08-23T14:44:59;32.99;25.01
12907;DHT22;6521;50.498;8.474;2022-08-23T14:47:30;32.71;24.93
12907;DHT22;6521;50.498;8.474;2022-08-23T14:50:04;32.72;25.05
12907;DHT22;6521;50.498;8.474;2022-08-23T14:52:39;32.47;25.99
12907;DHT22;6521;50.498;8.474;2022-08-23T14:55:11;32.19;26.29
12907;DHT22;6521;50.498;8.474;2022-08-23T14:57:42;31.94;26.41
12907;DHT22;6521;50.498;8.474;2022-08-23T15:00:14;31.55;26.86
12907;DHT22;6521;50.498;8.474;2022-08-23T15:02:46;31.14;27.76
12907;DHT22;6521;50.498;8.474;2022-08-23T15:05:18;30.98;28.00
12907;DHT22;6521;50.498;8.474;2022-08-23T15:07:49;30.97;28.02
12907;DHT22;6521;50.498;8.474;2022-08-23T15:10:21;30.92;28.35
12907;DHT22;6521;50.498;8.474;2022-08-23T15:12:52;30.77;28.78
12907;DHT22;6521;50.498;8.474;2022-08-23T15:15:23;30.55;28.98
12907;DHT22;6521;50.498;8.474;2022-08-23T15:17:56;30.28;28.79
12907;DHT22;6521;50.498;8.474;2022-08-23T15:20:31;30.11;28.41
12907;DHT22;6521;50.498;8.474;2022-08-23T15:23:04;30.15;28.82
12907;DHT22;6521;50.498;8.474;2022-08-23T15:25:37;29.89;28.84
12907;DHT22;6521;50.498;8.474;2022-08-23T15:28:11;29.77;29.61
12907;DHT22;6521;50.498;8.474;2022-08-23T15:30:43;29.70;28.90
12907;DHT22;6521;50.498;8.474;2022-08-23T15:33:15;29.68;29.40
12907;DHT22;6521;50.498;8.474;2022-08-23T15:35:48;29.63;28.77
12907;DHT22;6521;50.498;8.474;2022-08-23T15:38:22;29.40;28.80
12907;DHT22;6521;50.498;8.474;2022-08-23T15:40:54;29.49;29.80
12907;DHT22;6521;50.498;8.474;2022-08-23T15:43:25;29.50;29.58
12907;DHT22;6521;50.498;8.474;2022-08-23T15:45:56;29.46;30.00
12907;DHT22;6521;50.498;8.474;2022-08-23T15:48:33;29.49;31.82
12907;DHT22;6521;50.498;8.474;2022-08-23T15:51:04;29.47;32.71
12907;DHT22;6521;50.498;8.474;2022-08-23T15:53:36;29.54;32.83
12907;DHT22;6521;50.498;8.474;2022-08-23T15:56:12;29.77;33.47
12907;DHT22;6521;50.498;8.474;2022-08-23T15:58:44;30.02;31.53
12907;DHT22;6521;50.498;8.474;2022-08-23T16:01:15;30.02;29.72
12907;DHT22;6521;50.498;8.474;2022-08-23T16:03:47;29.92;30.16
12907;DHT22;6521;50.498;8.474;2022-08-23T16:06:17;29.78;29.83
12907;DHT22;6521;50.498;8.474;2022-08-23T16:08:50;29.80;31.32
12907;DHT22;6521;50.498;8.474;2022-08-23T16:11:21;29.68;30.25
12907;DHT22;6521;50.498;8.474;2022-08-23T16:13:53;29.64;31.07
12907;DHT22;6521;50.498;8.474;2022-08-23T16:16:26;29.63;31.80
12907;DHT22;6521;50.498;8.474;2022-08-23T16:18:58;29.64;31.93
12907;DHT22;6521;50.498;8.474;2022-08-23T16:21:30;29.50;32.17
12907;DHT22;6521;50.498;8.474;2022-08-23T16:24:01;29.49;31.72
12907;DHT22;6521;50.498;8.474;2022-08-23T16:26:35;29.43;31.89
12907;DHT22;6521;50.498;8.474;2022-08-23T16:29:09;29.33;31.17
12907;DHT22;6521;50.498;8.474;2022-08-23T16:31:40;29.29;31.61
12907;DHT22;6521;50.498;8.474;2022-08-23T16:34:14;29.26;32.51
12907;DHT22;6521;50.498;8.474;2022-08-23T16:36:50;29.22;32.52
12907;DHT22;6521;50.498;8.474;2022-08-23T16:39:23;29.13;33.21
12907;DHT22;6521;50.498;8.474;2022-08-23T16:41:55;29.07;33.61
12907;DHT22;6521;50.498;8.474;2022-08-23T16:44:26;28.94;33.58
12907;DHT22;6521;50.498;8.474;2022-08-23T16:47:01;28.83;32.82
12907;DHT22;6521;50.498;8.474;2022-08-23T16:49:32;28.75;32.74
12907;DHT22;6521;50.498;8.474;2022-08-23T16:52:04;28.61;32.13
12907;DHT22;6521;50.498;8.474;2022-08-23T16:54:36;28.51;32.42
12907;DHT22;6521;50.498;8.474;2022-08-23T16:57:07;28.52;33.02
12907;DHT22;6521;50.498;8.474;2022-08-23T16:59:38;28.52;34.31
12907;DHT22;6521;50.498;8.474;2022-08-23T17:02:21;28.49;34.16
12907;DHT22;6521;50.498;8.474;2022-08-23T17:04:55;28.45;34.67
12907;DHT22;6521;50.498;8.474;2022-08-23T17:07:26;28.47;33.75
12907;DHT22;6521;50.498;8.474;2022-08-23T17:09:56;28.49;34.07
12907;DHT22;6521;50.498;8.474;2022-08-23T17:12:27;28.44;34.04
12907;DHT22;6521;50.498;8.474;2022-08-23T17:14:58;28.36;34.34
12907;DHT22;6521;50.498;8.474;2022-08-23T17:17:30;28.27;34.75
12907;DHT22;6521;50.498;8.474;2022-08-23T17:20:04;28.24;35.38
12907;DHT22;6521;50.498;8.474;2022-08-23T17:22:35;28.10;34.75
12907;DHT22;6521;50.498;8.474;2022-08-23T17:25:07;27.93;34.22
12907;DHT22;6521;50.498;8.474;2022-08-23T17:27:40;27.87;34.97
12907;DHT22;6521;50.498;8.474;2022-08-23T17:30:13;27.83;35.66
12907;DHT22;6521;50.498;8.474;2022-08-23T17:32:44;27.76;37.35
12907;DHT22;6521;50.498;8.474;2022-08-23T17:35:35;27.60;37.24
12907;DHT22;6521;50.498;8.474;2022-08-23T17:38:06;27.43;37.23
12907;DHT22;6521;50.498;8.474;2022-08-23T17:40:39;27.32;38.00
12907;DHT22;6521;50.498;8.474;2022-08-23T17:43:10;27.19;38.17
12907;DHT22;6521;50.498;8.474;2022-08-23T17:45:45;27.07;37.96
12907;DHT22;6521;50.498;8.474;2022-08-23T17:48:19;26.90;38.54
12907;DHT22;6521;50.498;8.474;2022-08-23T17:50:51;26.77;38.24
12907;DHT22;6521;50.498;8.474;2022-08-23T17:53:22;26.61;37.96
12907;DHT22;6521;50.498;8.474;2022-08-23T17:55:53;26.49;38.48
12907;DHT22;6521;50.498;8.474;2022-08-23T17:58:24;26.40;38.75
12907;DHT22;6521;50.498;8.474;2022-08-23T18:00:55;26.25;40.14
12907;DHT22;6521;50.498;8.474;2022-08-23T18:03:26;26.12;39.94
12907;DHT22;6521;50.498;8.474;2022-08-23T18:05:57;26.01;39.90
12907;DHT22;6521;50.498;8.474;2022-08-23T18:08:28;25.85;40.04
12907;DHT22;6521;50.498;8.474;2022-08-23T18:10:59;25.77;39.52
12907;DHT22;6521;50.498;8.474;2022-08-23T18:13:32;25.64;40.09
12907;DHT22;6521;50.498;8.474;2022-08-23T18:16:04;25.57;40.47
12907;DHT22;6521;50.498;8.474;2022-08-23T18:18:35;25.41;40.77
12907;DHT22;6521;50.498;8.474;2022-08-23T18:21:08;25.30;40.92